Wells, Maine
Current Conditions -  °F | °C
As of 11:55 PM on Wednesday 22 Oct 2014 (Local Time) from KSFM Reporting Station
Overcast Overcast  
Wind Chill: 39°   Ceiling: 800
Heat Index: 46°   Visibility: 6mi
Dew Point: 39°   Wind: 21mph
Humidity: 76%   Direction: 30°NNE
Pressure: 29.94"   Gusts: 33mph
Location:  43.28°N, 70.58°W
Report Text: KSFM 230355Z AUTO 03018G29KT 6SM OVC008 08/04 A2994 RMK AO1 P0008
Loading
Personal Weather Stations






























Interactive Weather Map
Tropical Storm Tracking
New forecast layout! Learn more

10-Day Weather Forecast

Advertisements
Track Severe Weather on mobile